Enter the Airport ICAO Code

Search by Airport or City

Current Weather

MDPC | Punta Cana International Airport

Punta Cana, Dominican Republic

Last Update 59 Minutes Ago

Partly Cloudy Sky

Temperature of 30 ºC

Moderate Winds from East

Temperature

30 ºC

Dew Point Temperature

24 ºC

Relative Humidity

70.44 %

Wind Direction

East (080º, Without Significant Variations)

Wind Velocity

22 km/h (12 kt)

Gusts

None

Visibility

Greater than 10 Kilometers

Sea Level Pressure

1016 hPa (Hectopascals)

Layers of Clouds

30% to 60% of Sky Covered from 671 mts (2200 ft) Above Ground Level.

METAR MDPC 121400Z 08012KT 9999 SCT022 30/24 Q1016

Weather Forecast

MDPC | Punta Cana International Airport

Punta Cana, Dominican Republic

Forecast valid for the next -303 Hours

From now on it is expected:

Partly Cloudy Sky

Maximum Temperature

No Data

Minimum Temperature

No Data

TAF MDPC 1212/1312 09010KT 9999 FEW020 SCT300 PROB30 1212/1218 8000 -SH SCT018 BKN300